Independence, IA

1:03 AM CST on March 01, 2015 (GMT -0600)
Terrace Drive SE | Change Station
CLOSE
Current Station
Personal Weather Station
Location: Independence, IA
Elevation: 940 ft
Nearby Weather Stations

Elev 940 ft 42.47 °N, 91.88 °W | Updated 12 seconds ago

Overcast
Overcast
9.0 °F
Feels Like -2 °F
N
7.0
Wind Variable Wind from SSE
Gusts 9.0 mph

Today
High -- | Low -- °F
--% Chance of Precip.
Yesterday
High -- | Low -- °F
Precip. -- in
6:43 AM 5:57 PM
Waxing Gibbous, 83% visible
Pressure 30.37 in
Visibility 5.0 miles
Clouds Overcast 300 ft
Windchill -2 °F
Dew Point 7 °F
Humidity 91%
Rainfall 0.00 in
Snow Depth Not available.
UV 0 out of 12
Pollen .40 out of 12
Air Quality Not available.
Flu Activity Not available.
METAR KOLZ 010655Z AUTO 15008KT 5SM BR OVC003 M13/M15 A3037 RMK AO2

More Conditions Fewer Conditions

Pressure 30.37 in
Visibility 5.0 miles
Clouds Overcast 300 ft
Windchill -2 °F
Dew Point 7 °F
Humidity 91%
Rainfall 0.00 in
Snow Depth Not available.
UV 0 out of 12
Pollen .40 out of 12
Air Quality Not available.
Flu Activity Not available.
METAR KOLZ 010655Z AUTO 15008KT 5SM BR OVC003 M13/M15 A3037 RMK AO2

More Conditions Fewer Conditions

10-Day Weather Forecast

Almanac

Astronomy

Mar. 01, 2015 Rise Set
Actual Time
Civil Twilight
Nautical Twilight
Astronomical Twilight
Moon
Length of Visible Light
Length of Day
Tomorrow will be .
, % of the Moon is Illuminated

Today's Extremes

State Highs State Lows

Community

WunderPhotos

Upload Photos

1,801,347 photos uploaded!

WunderBlogs® & News

Nearby

Air Quality

  Air Quality AQ Index Pollutant
Not available.

Snow Depth

Station Depth Elevation

Earthquake Activity

City Distance Mag. Time & Date
Minimum magnitude displayed is 2.5.

Coastal Water Temperatures

Place Temperature

Nearby Weather Stations